sensor_id;sensor_type;location;lat;lon;timestamp;P1;durP1;ratioP1;P2;durP2;ratioP2
51636;SDS011;37713;53.254;6.460;2023-05-10T00:00:26;13.20;;;9.05;;
51636;SDS011;37713;53.254;6.460;2023-05-10T00:02:52;14.85;;;9.13;;
51636;SDS011;37713;53.254;6.460;2023-05-10T00:05:18;13.57;;;9.40;;
51636;SDS011;37713;53.254;6.460;2023-05-10T00:07:44;16.77;;;9.05;;
51636;SDS011;37713;53.254;6.460;2023-05-10T00:10:10;12.73;;;9.35;;
51636;SDS011;37713;53.254;6.460;2023-05-10T00:12:36;12.30;;;9.05;;
51636;SDS011;37713;53.254;6.460;2023-05-10T00:15:02;15.07;;;9.30;;
51636;SDS011;37713;53.254;6.460;2023-05-10T00:17:29;18.75;;;9.60;;
51636;SDS011;37713;53.254;6.460;2023-05-10T00:19:54;12.77;;;8.70;;
51636;SDS011;37713;53.254;6.460;2023-05-10T00:22:20;12.73;;;8.55;;
51636;SDS011;37713;53.254;6.460;2023-05-10T00:24:46;18.60;;;8.73;;
51636;SDS011;37713;53.254;6.460;2023-05-10T00:27:12;16.98;;;9.40;;
51636;SDS011;37713;53.254;6.460;2023-05-10T00:29:38;15.35;;;8.32;;
51636;SDS011;37713;53.254;6.460;2023-05-10T00:32:04;12.85;;;8.77;;
51636;SDS011;37713;53.254;6.460;2023-05-10T00:34:29;14.27;;;8.00;;
51636;SDS011;37713;53.254;6.460;2023-05-10T00:36:55;14.23;;;8.68;;
51636;SDS011;37713;53.254;6.460;2023-05-10T00:39:21;15.80;;;7.65;;
51636;SDS011;37713;53.254;6.460;2023-05-10T00:41:47;12.55;;;7.47;;
51636;SDS011;37713;53.254;6.460;2023-05-10T00:44:13;9.27;;;7.00;;
51636;SDS011;37713;53.254;6.460;2023-05-10T00:46:39;17.60;;;7.50;;
51636;SDS011;37713;53.254;6.460;2023-05-10T00:49:05;11.07;;;6.70;;
51636;SDS011;37713;53.254;6.460;2023-05-10T00:51:31;12.63;;;6.85;;
51636;SDS011;37713;53.254;6.460;2023-05-10T00:53:57;8.88;;;6.38;;
51636;SDS011;37713;53.254;6.460;2023-05-10T00:56:24;9.70;;;6.45;;
51636;SDS011;37713;53.254;6.460;2023-05-10T00:58:50;9.68;;;6.07;;
51636;SDS011;37713;53.254;6.460;2023-05-10T01:01:17;9.70;;;6.78;;
51636;SDS011;37713;53.254;6.460;2023-05-10T01:03:42;13.43;;;7.15;;
51636;SDS011;37713;53.254;6.460;2023-05-10T01:06:08;8.82;;;6.72;;
51636;SDS011;37713;53.254;6.460;2023-05-10T01:08:35;12.07;;;7.03;;
51636;SDS011;37713;53.254;6.460;2023-05-10T01:11:01;11.63;;;6.95;;
51636;SDS011;37713;53.254;6.460;2023-05-10T01:13:37;10.30;;;7.53;;
51636;SDS011;37713;53.254;6.460;2023-05-10T01:16:05;13.68;;;7.72;;
51636;SDS011;37713;53.254;6.460;2023-05-10T01:18:38;12.65;;;7.53;;
51636;SDS011;37713;53.254;6.460;2023-05-10T01:21:16;13.73;;;8.18;;
51636;SDS011;37713;53.254;6.460;2023-05-10T01:32:19;17.55;;;8.05;;
51636;SDS011;37713;53.254;6.460;2023-05-10T01:37:22;12.35;;;8.13;;
51636;SDS011;37713;53.254;6.460;2023-05-10T01:40:08;11.90;;;8.25;;
51636;SDS011;37713;53.254;6.460;2023-05-10T01:42:46;13.63;;;7.50;;
51636;SDS011;37713;53.254;6.460;2023-05-10T01:45:22;14.25;;;7.63;;
51636;SDS011;37713;53.254;6.460;2023-05-10T01:48:06;11.75;;;7.57;;
51636;SDS011;37713;53.254;6.460;2023-05-10T01:50:35;12.25;;;7.93;;
51636;SDS011;37713;53.254;6.460;2023-05-10T01:53:04;15.30;;;8.50;;
51636;SDS011;37713;53.254;6.460;2023-05-10T01:55:32;11.00;;;8.37;;
51636;SDS011;37713;53.254;6.460;2023-05-10T01:58:21;15.07;;;8.35;;
51636;SDS011;37713;53.254;6.460;2023-05-10T02:00:51;14.65;;;8.50;;
51636;SDS011;37713;53.254;6.460;2023-05-10T02:03:20;18.20;;;7.70;;
51636;SDS011;37713;53.254;6.460;2023-05-10T02:05:48;9.60;;;7.45;;
51636;SDS011;37713;53.254;6.460;2023-05-10T02:08:16;9.20;;;7.03;;
51636;SDS011;37713;53.254;6.460;2023-05-10T02:10:44;9.32;;;6.45;;
51636;SDS011;37713;53.254;6.460;2023-05-10T02:13:11;8.70;;;6.43;;
51636;SDS011;37713;53.254;6.460;2023-05-10T02:15:39;10.80;;;6.72;;
51636;SDS011;37713;53.254;6.460;2023-05-10T02:18:06;9.50;;;7.20;;
51636;SDS011;37713;53.254;6.460;2023-05-10T02:20:34;9.18;;;7.15;;
51636;SDS011;37713;53.254;6.460;2023-05-10T02:23:03;8.80;;;6.88;;
51636;SDS011;37713;53.254;6.460;2023-05-10T02:25:30;9.93;;;6.75;;
51636;SDS011;37713;53.254;6.460;2023-05-10T02:27:57;11.35;;;7.80;;
51636;SDS011;37713;53.254;6.460;2023-05-10T02:30:27;10.80;;;8.00;;
51636;SDS011;37713;53.254;6.460;2023-05-10T02:32:55;11.82;;;8.82;;
51636;SDS011;37713;53.254;6.460;2023-05-10T02:35:22;15.48;;;9.27;;
51636;SDS011;37713;53.254;6.460;2023-05-10T02:37:50;13.95;;;9.38;;
51636;SDS011;37713;53.254;6.460;2023-05-10T02:40:16;15.30;;;10.10;;
51636;SDS011;37713;53.254;6.460;2023-05-10T02:42:44;19.10;;;12.10;;
51636;SDS011;37713;53.254;6.460;2023-05-10T02:45:16;20.23;;;11.85;;
51636;SDS011;37713;53.254;6.460;2023-05-10T02:47:45;18.90;;;11.77;;
51636;SDS011;37713;53.254;6.460;2023-05-10T02:50:11;18.35;;;12.00;;
51636;SDS011;37713;53.254;6.460;2023-05-10T02:52:42;19.02;;;12.13;;
51636;SDS011;37713;53.254;6.460;2023-05-10T02:55:11;19.40;;;12.70;;
51636;SDS011;37713;53.254;6.460;2023-05-10T02:57:46;19.60;;;12.23;;
51636;SDS011;37713;53.254;6.460;2023-05-10T03:00:17;19.02;;;12.35;;
51636;SDS011;37713;53.254;6.460;2023-05-10T03:02:43;18.65;;;13.00;;
51636;SDS011;37713;53.254;6.460;2023-05-10T03:05:09;20.75;;;13.15;;
51636;SDS011;37713;53.254;6.460;2023-05-10T03:07:35;23.38;;;13.07;;
51636;SDS011;37713;53.254;6.460;2023-05-10T03:10:01;20.70;;;13.20;;
51636;SDS011;37713;53.254;6.460;2023-05-10T03:15:00;18.08;;;11.35;;
51636;SDS011;37713;53.254;6.460;2023-05-10T03:20:16;17.73;;;12.05;;
51636;SDS011;37713;53.254;6.460;2023-05-10T03:22:51;20.25;;;12.20;;
51636;SDS011;37713;53.254;6.460;2023-05-10T03:25:20;21.38;;;11.48;;
51636;SDS011;37713;53.254;6.460;2023-05-10T03:27:47;20.13;;;12.13;;
51636;SDS011;37713;53.254;6.460;2023-05-10T03:30:14;19.00;;;11.57;;
51636;SDS011;37713;53.254;6.460;2023-05-10T03:32:41;20.95;;;11.95;;
51636;SDS011;37713;53.254;6.460;2023-05-10T03:35:07;20.85;;;11.40;;
51636;SDS011;37713;53.254;6.460;2023-05-10T03:37:34;18.25;;;10.13;;
51636;SDS011;37713;53.254;6.460;2023-05-10T03:40:00;16.33;;;9.63;;
51636;SDS011;37713;53.254;6.460;2023-05-10T03:42:26;15.55;;;9.13;;
51636;SDS011;37713;53.254;6.460;2023-05-10T03:44:52;12.23;;;8.13;;
51636;SDS011;37713;53.254;6.460;2023-05-10T03:47:18;12.85;;;7.57;;
51636;SDS011;37713;53.254;6.460;2023-05-10T03:49:43;10.55;;;6.82;;
51636;SDS011;37713;53.254;6.460;2023-05-10T03:52:09;13.10;;;7.00;;
51636;SDS011;37713;53.254;6.460;2023-05-10T03:54:35;12.18;;;6.47;;
51636;SDS011;37713;53.254;6.460;2023-05-10T03:57:01;10.48;;;6.70;;
51636;SDS011;37713;53.254;6.460;2023-05-10T03:59:28;11.82;;;6.50;;
51636;SDS011;37713;53.254;6.460;2023-05-10T04:01:53;9.40;;;6.13;;
51636;SDS011;37713;53.254;6.460;2023-05-10T04:04:19;11.65;;;5.88;;
51636;SDS011;37713;53.254;6.460;2023-05-10T04:06:46;8.80;;;6.25;;
51636;SDS011;37713;53.254;6.460;2023-05-10T04:09:12;10.60;;;7.50;;
51636;SDS011;37713;53.254;6.460;2023-05-10T04:11:38;14.70;;;6.18;;
51636;SDS011;37713;53.254;6.460;2023-05-10T04:14:03;8.38;;;5.70;;
51636;SDS011;37713;53.254;6.460;2023-05-10T04:16:29;8.50;;;6.60;;
51636;SDS011;37713;53.254;6.460;2023-05-10T04:18:55;9.88;;;6.28;;
51636;SDS011;37713;53.254;6.460;2023-05-10T04:21:21;12.43;;;6.25;;
51636;SDS011;37713;53.254;6.460;2023-05-10T04:23:46;10.27;;;5.90;;
51636;SDS011;37713;53.254;6.460;2023-05-10T04:26:12;10.13;;;5.95;;
51636;SDS011;37713;53.254;6.460;2023-05-10T04:28:38;9.02;;;5.38;;
51636;SDS011;37713;53.254;6.460;2023-05-10T04:31:05;8.18;;;5.10;;
51636;SDS011;37713;53.254;6.460;2023-05-10T04:33:32;8.73;;;5.03;;
51636;SDS011;37713;53.254;6.460;2023-05-10T04:35:59;8.57;;;5.55;;
51636;SDS011;37713;53.254;6.460;2023-05-10T04:38:25;8.18;;;6.10;;
51636;SDS011;37713;53.254;6.460;2023-05-10T04:40:50;8.02;;;5.95;;
51636;SDS011;37713;53.254;6.460;2023-05-10T04:43:16;11.57;;;6.45;;
51636;SDS011;37713;53.254;6.460;2023-05-10T04:45:42;9.07;;;6.57;;
51636;SDS011;37713;53.254;6.460;2023-05-10T04:48:08;9.80;;;6.28;;
51636;SDS011;37713;53.254;6.460;2023-05-10T04:50:33;11.27;;;6.70;;
51636;SDS011;37713;53.254;6.460;2023-05-10T04:52:59;8.77;;;6.40;;
51636;SDS011;37713;53.254;6.460;2023-05-10T04:55:25;9.07;;;5.60;;
51636;SDS011;37713;53.254;6.460;2023-05-10T04:57:52;8.27;;;5.45;;
51636;SDS011;37713;53.254;6.460;2023-05-10T05:00:20;10.05;;;6.15;;
51636;SDS011;37713;53.254;6.460;2023-05-10T05:02:46;7.85;;;5.55;;
51636;SDS011;37713;53.254;6.460;2023-05-10T05:05:12;9.05;;;5.90;;
51636;SDS011;37713;53.254;6.460;2023-05-10T05:07:37;7.90;;;5.82;;
51636;SDS011;37713;53.254;6.460;2023-05-10T05:10:07;8.00;;;5.38;;
51636;SDS011;37713;53.254;6.460;2023-05-10T05:12:33;9.73;;;5.82;;
51636;SDS011;37713;53.254;6.460;2023-05-10T05:15:00;7.82;;;5.95;;
51636;SDS011;37713;53.254;6.460;2023-05-10T05:17:26;9.55;;;6.53;;
51636;SDS011;37713;53.254;6.460;2023-05-10T05:19:52;8.85;;;6.40;;
51636;SDS011;37713;53.254;6.460;2023-05-10T05:22:19;7.75;;;6.13;;
51636;SDS011;37713;53.254;6.460;2023-05-10T05:24:51;8.68;;;6.32;;
51636;SDS011;37713;53.254;6.460;2023-05-10T05:27:18;8.90;;;6.60;;
51636;SDS011;37713;53.254;6.460;2023-05-10T05:29:46;8.32;;;5.75;;
51636;SDS011;37713;53.254;6.460;2023-05-10T05:32:11;7.85;;;5.30;;
51636;SDS011;37713;53.254;6.460;2023-05-10T05:34:37;7.50;;;4.80;;
51636;SDS011;37713;53.254;6.460;2023-05-10T05:37:03;6.55;;;4.47;;
51636;SDS011;37713;53.254;6.460;2023-05-10T05:39:28;6.45;;;4.30;;
51636;SDS011;37713;53.254;6.460;2023-05-10T05:41:54;6.55;;;3.47;;
51636;SDS011;37713;53.254;6.460;2023-05-10T05:44:20;6.45;;;3.30;;
51636;SDS011;37713;53.254;6.460;2023-05-10T05:46:46;4.65;;;2.90;;
51636;SDS011;37713;53.254;6.460;2023-05-10T05:49:11;6.55;;;2.80;;
51636;SDS011;37713;53.254;6.460;2023-05-10T05:51:37;5.00;;;2.65;;
51636;SDS011;37713;53.254;6.460;2023-05-10T05:54:03;3.45;;;2.08;;
51636;SDS011;37713;53.254;6.460;2023-05-10T05:56:29;4.75;;;2.00;;
51636;SDS011;37713;53.254;6.460;2023-05-10T05:58:55;4.72;;;2.03;;
51636;SDS011;37713;53.254;6.460;2023-05-10T06:01:21;3.30;;;1.60;;
51636;SDS011;37713;53.254;6.460;2023-05-10T06:03:47;2.40;;;1.25;;
51636;SDS011;37713;53.254;6.460;2023-05-10T06:06:12;2.05;;;1.38;;
51636;SDS011;37713;53.254;6.460;2023-05-10T06:08:38;2.88;;;1.77;;
51636;SDS011;37713;53.254;6.460;2023-05-10T06:11:04;3.17;;;2.05;;
51636;SDS011;37713;53.254;6.460;2023-05-10T06:13:29;2.95;;;1.80;;
51636;SDS011;37713;53.254;6.460;2023-05-10T06:16:00;3.78;;;2.15;;
51636;SDS011;37713;53.254;6.460;2023-05-10T06:18:27;8.40;;;3.95;;
51636;SDS011;37713;53.254;6.460;2023-05-10T06:20:53;10.02;;;7.22;;
51636;SDS011;37713;53.254;6.460;2023-05-10T06:23:18;12.05;;;9.30;;
51636;SDS011;37713;53.254;6.460;2023-05-10T06:25:44;14.90;;;10.05;;
51636;SDS011;37713;53.254;6.460;2023-05-10T06:28:10;15.55;;;11.25;;
51636;SDS011;37713;53.254;6.460;2023-05-10T06:30:36;15.95;;;10.93;;
51636;SDS011;37713;53.254;6.460;2023-05-10T06:33:02;18.38;;;11.20;;
51636;SDS011;37713;53.254;6.460;2023-05-10T06:35:28;14.60;;;10.25;;
51636;SDS011;37713;53.254;6.460;2023-05-10T06:37:54;14.48;;;10.80;;
51636;SDS011;37713;53.254;6.460;2023-05-10T06:40:20;16.13;;;11.98;;
51636;SDS011;37713;53.254;6.460;2023-05-10T06:42:46;16.58;;;11.95;;
51636;SDS011;37713;53.254;6.460;2023-05-10T06:45:13;14.52;;;10.35;;
51636;SDS011;37713;53.254;6.460;2023-05-10T06:47:40;12.55;;;9.40;;
51636;SDS011;37713;53.254;6.460;2023-05-10T06:50:07;12.70;;;8.98;;
51636;SDS011;37713;53.254;6.460;2023-05-10T06:52:33;13.38;;;7.85;;
51636;SDS011;37713;53.254;6.460;2023-05-10T06:54:59;10.57;;;7.28;;
51636;SDS011;37713;53.254;6.460;2023-05-10T06:57:25;11.38;;;7.30;;
51636;SDS011;37713;53.254;6.460;2023-05-10T06:59:51;12.10;;;7.07;;
51636;SDS011;37713;53.254;6.460;2023-05-10T07:02:17;10.90;;;6.50;;
51636;SDS011;37713;53.254;6.460;2023-05-10T07:04:43;8.40;;;5.75;;
51636;SDS011;37713;53.254;6.460;2023-05-10T07:07:09;8.85;;;5.45;;
51636;SDS011;37713;53.254;6.460;2023-05-10T07:09:34;9.57;;;6.00;;
51636;SDS011;37713;53.254;6.460;2023-05-10T07:12:00;8.32;;;5.57;;
51636;SDS011;37713;53.254;6.460;2023-05-10T07:14:27;7.85;;;4.68;;
51636;SDS011;37713;53.254;6.460;2023-05-10T07:16:53;5.93;;;4.03;;
51636;SDS011;37713;53.254;6.460;2023-05-10T07:19:18;8.77;;;3.97;;
51636;SDS011;37713;53.254;6.460;2023-05-10T07:21:45;8.15;;;4.05;;
51636;SDS011;37713;53.254;6.460;2023-05-10T07:24:10;6.03;;;3.20;;
51636;SDS011;37713;53.254;6.460;2023-05-10T07:26:36;3.80;;;2.00;;
51636;SDS011;37713;53.254;6.460;2023-05-10T07:29:02;3.20;;;1.80;;
51636;SDS011;37713;53.254;6.460;2023-05-10T07:31:28;2.30;;;1.50;;
51636;SDS011;37713;53.254;6.460;2023-05-10T07:33:54;2.22;;;1.63;;
51636;SDS011;37713;53.254;6.460;2023-05-10T07:36:20;2.80;;;1.60;;
51636;SDS011;37713;53.254;6.460;2023-05-10T07:38:45;5.50;;;2.40;;
51636;SDS011;37713;53.254;6.460;2023-05-10T07:41:11;5.13;;;2.53;;
51636;SDS011;37713;53.254;6.460;2023-05-10T07:43:37;6.97;;;2.42;;
51636;SDS011;37713;53.254;6.460;2023-05-10T07:46:03;6.28;;;2.65;;
51636;SDS011;37713;53.254;6.460;2023-05-10T07:48:30;4.68;;;2.80;;
51636;SDS011;37713;53.254;6.460;2023-05-10T07:50:56;5.70;;;3.75;;
51636;SDS011;37713;53.254;6.460;2023-05-10T07:53:22;6.78;;;3.65;;
51636;SDS011;37713;53.254;6.460;2023-05-10T07:55:51;7.93;;;3.38;;
51636;SDS011;37713;53.254;6.460;2023-05-10T07:58:19;7.22;;;3.60;;
51636;SDS011;37713;53.254;6.460;2023-05-10T08:00:45;8.20;;;3.72;;
51636;SDS011;37713;53.254;6.460;2023-05-10T08:03:11;9.95;;;3.95;;
51636;SDS011;37713;53.254;6.460;2023-05-10T08:05:37;7.10;;;3.75;;
51636;SDS011;37713;53.254;6.460;2023-05-10T08:08:05;9.18;;;4.07;;
51636;SDS011;37713;53.254;6.460;2023-05-10T08:10:31;8.38;;;4.00;;
51636;SDS011;37713;53.254;6.460;2023-05-10T08:12:57;7.50;;;4.10;;
51636;SDS011;37713;53.254;6.460;2023-05-10T08:15:26;5.97;;;3.97;;
51636;SDS011;37713;53.254;6.460;2023-05-10T08:17:52;6.43;;;4.40;;
51636;SDS011;37713;53.254;6.460;2023-05-10T08:20:18;8.30;;;5.07;;
51636;SDS011;37713;53.254;6.460;2023-05-10T08:22:47;6.93;;;4.47;;
51636;SDS011;37713;53.254;6.460;2023-05-10T08:25:13;6.83;;;4.90;;
51636;SDS011;37713;53.254;6.460;2023-05-10T08:27:38;6.55;;;4.40;;
51636;SDS011;37713;53.254;6.460;2023-05-10T08:30:04;6.40;;;4.45;;
51636;SDS011;37713;53.254;6.460;2023-05-10T08:32:31;6.80;;;4.03;;
51636;SDS011;37713;53.254;6.460;2023-05-10T08:34:56;6.38;;;4.10;;
51636;SDS011;37713;53.254;6.460;2023-05-10T08:37:23;5.20;;;2.80;;
51636;SDS011;37713;53.254;6.460;2023-05-10T08:39:49;5.10;;;3.00;;
51636;SDS011;37713;53.254;6.460;2023-05-10T08:42:16;4.70;;;3.03;;
51636;SDS011;37713;53.254;6.460;2023-05-10T08:44:48;6.18;;;3.53;;
51636;SDS011;37713;53.254;6.460;2023-05-10T08:47:15;7.60;;;3.88;;
51636;SDS011;37713;53.254;6.460;2023-05-10T08:49:43;5.95;;;3.83;;
51636;SDS011;37713;53.254;6.460;2023-05-10T08:54:40;7.65;;;4.70;;
51636;SDS011;37713;53.254;6.460;2023-05-10T08:57:06;9.40;;;5.50;;
51636;SDS011;37713;53.254;6.460;2023-05-10T08:59:32;8.80;;;5.38;;
51636;SDS011;37713;53.254;6.460;2023-05-10T09:01:58;7.93;;;5.15;;
51636;SDS011;37713;53.254;6.460;2023-05-10T09:04:24;10.82;;;5.07;;
51636;SDS011;37713;53.254;6.460;2023-05-10T09:06:51;7.75;;;4.63;;
51636;SDS011;37713;53.254;6.460;2023-05-10T09:09:17;8.13;;;5.20;;
51636;SDS011;37713;53.254;6.460;2023-05-10T09:11:44;7.72;;;5.13;;
51636;SDS011;37713;53.254;6.460;2023-05-10T09:14:13;13.60;;;5.25;;
51636;SDS011;37713;53.254;6.460;2023-05-10T09:16:40;10.07;;;5.72;;
51636;SDS011;37713;53.254;6.460;2023-05-10T09:19:07;7.88;;;4.70;;
51636;SDS011;37713;53.254;6.460;2023-05-10T09:21:34;8.77;;;5.43;;
51636;SDS011;37713;53.254;6.460;2023-05-10T09:24:04;7.30;;;4.90;;
51636;SDS011;37713;53.254;6.460;2023-05-10T09:26:30;7.25;;;4.60;;
51636;SDS011;37713;53.254;6.460;2023-05-10T09:28:57;11.52;;;4.95;;
51636;SDS011;37713;53.254;6.460;2023-05-10T09:31:24;8.38;;;4.13;;
51636;SDS011;37713;53.254;6.460;2023-05-10T09:34:29;7.13;;;3.78;;
51636;SDS011;37713;53.254;6.460;2023-05-10T09:37:00;7.88;;;3.75;;
51636;SDS011;37713;53.254;6.460;2023-05-10T09:39:34;6.78;;;3.35;;
51636;SDS011;37713;53.254;6.460;2023-05-10T09:42:04;10.60;;;3.88;;
51636;SDS011;37713;53.254;6.460;2023-05-10T09:44:32;6.93;;;4.22;;
51636;SDS011;37713;53.254;6.460;2023-05-10T09:46:59;6.80;;;4.38;;
51636;SDS011;37713;53.254;6.460;2023-05-10T09:49:28;8.45;;;4.25;;
51636;SDS011;37713;53.254;6.460;2023-05-10T09:52:01;5.93;;;3.63;;
51636;SDS011;37713;53.254;6.460;2023-05-10T09:54:31;7.20;;;3.70;;
51636;SDS011;37713;53.254;6.460;2023-05-10T09:56:58;6.70;;;3.45;;
51636;SDS011;37713;53.254;6.460;2023-05-10T09:59:25;6.30;;;3.88;;
51636;SDS011;37713;53.254;6.460;2023-05-10T10:01:52;8.23;;;3.67;;
51636;SDS011;37713;53.254;6.460;2023-05-10T10:04:20;9.20;;;3.88;;
51636;SDS011;37713;53.254;6.460;2023-05-10T10:06:46;5.90;;;3.53;;
51636;SDS011;37713;53.254;6.460;2023-05-10T10:09:23;7.97;;;4.05;;
51636;SDS011;37713;53.254;6.460;2023-05-10T10:11:49;7.80;;;3.92;;
51636;SDS011;37713;53.254;6.460;2023-05-10T10:14:17;5.75;;;3.08;;
51636;SDS011;37713;53.254;6.460;2023-05-10T10:16:44;5.22;;;3.10;;
51636;SDS011;37713;53.254;6.460;2023-05-10T10:19:10;5.35;;;2.85;;
51636;SDS011;37713;53.254;6.460;2023-05-10T10:21:36;5.93;;;2.80;;
51636;SDS011;37713;53.254;6.460;2023-05-10T10:24:01;5.63;;;2.90;;
51636;SDS011;37713;53.254;6.460;2023-05-10T10:26:30;8.45;;;3.50;;
51636;SDS011;37713;53.254;6.460;2023-05-10T10:29:08;6.70;;;4.05;;
51636;SDS011;37713;53.254;6.460;2023-05-10T10:32:09;7.90;;;4.07;;
51636;SDS011;37713;53.254;6.460;2023-05-10T10:34:49;7.45;;;4.22;;
51636;SDS011;37713;53.254;6.460;2023-05-10T10:37:15;6.95;;;4.32;;
51636;SDS011;37713;53.254;6.460;2023-05-10T10:39:41;8.75;;;5.18;;
51636;SDS011;37713;53.254;6.460;2023-05-10T10:42:07;9.30;;;5.15;;
51636;SDS011;37713;53.254;6.460;2023-05-10T10:44:34;12.40;;;5.22;;
51636;SDS011;37713;53.254;6.460;2023-05-10T10:52:27;11.60;;;6.18;;
51636;SDS011;37713;53.254;6.460;2023-05-10T11:00:30;13.63;;;8.25;;
51636;SDS011;37713;53.254;6.460;2023-05-10T11:03:07;13.10;;;8.05;;
51636;SDS011;37713;53.254;6.460;2023-05-10T11:10:35;12.90;;;7.47;;
51636;SDS011;37713;53.254;6.460;2023-05-10T11:13:02;12.52;;;7.20;;
51636;SDS011;37713;53.254;6.460;2023-05-10T11:15:30;13.70;;;8.48;;
51636;SDS011;37713;53.254;6.460;2023-05-10T11:18:02;15.43;;;9.35;;
51636;SDS011;37713;53.254;6.460;2023-05-10T11:21:00;13.40;;;9.25;;
51636;SDS011;37713;53.254;6.460;2023-05-10T11:23:56;14.05;;;9.32;;
51636;SDS011;37713;53.254;6.460;2023-05-10T11:26:22;13.90;;;8.95;;
51636;SDS011;37713;53.254;6.460;2023-05-10T11:28:55;15.70;;;9.18;;
51636;SDS011;37713;53.254;6.460;2023-05-10T11:31:21;15.82;;;9.25;;
51636;SDS011;37713;53.254;6.460;2023-05-10T11:33:50;14.55;;;9.57;;
51636;SDS011;37713;53.254;6.460;2023-05-10T11:36:18;14.20;;;9.55;;
51636;SDS011;37713;53.254;6.460;2023-05-10T11:38:45;12.20;;;8.57;;
51636;SDS011;37713;53.254;6.460;2023-05-10T11:41:12;15.43;;;9.15;;
51636;SDS011;37713;53.254;6.460;2023-05-10T11:43:38;15.68;;;9.20;;
51636;SDS011;37713;53.254;6.460;2023-05-10T11:46:06;16.10;;;9.52;;
51636;SDS011;37713;53.254;6.460;2023-05-10T11:48:40;15.77;;;9.18;;
51636;SDS011;37713;53.254;6.460;2023-05-10T11:51:07;19.63;;;9.27;;
51636;SDS011;37713;53.254;6.460;2023-05-10T11:53:34;16.38;;;9.45;;
51636;SDS011;37713;53.254;6.460;2023-05-10T11:56:09;14.93;;;10.07;;
51636;SDS011;37713;53.254;6.460;2023-05-10T11:58:36;15.15;;;10.07;;
51636;SDS011;37713;53.254;6.460;2023-05-10T12:01:03;17.90;;;10.48;;
51636;SDS011;37713;53.254;6.460;2023-05-10T12:03:30;16.80;;;10.30;;
51636;SDS011;37713;53.254;6.460;2023-05-10T12:05:57;17.05;;;11.27;;
51636;SDS011;37713;53.254;6.460;2023-05-10T12:08:24;15.15;;;10.18;;
51636;SDS011;37713;53.254;6.460;2023-05-10T12:10:51;14.73;;;9.45;;
51636;SDS011;37713;53.254;6.460;2023-05-10T12:13:28;13.23;;;9.27;;
51636;SDS011;37713;53.254;6.460;2023-05-10T12:15:56;13.18;;;9.23;;
51636;SDS011;37713;53.254;6.460;2023-05-10T12:18:23;16.17;;;9.73;;
51636;SDS011;37713;53.254;6.460;2023-05-10T12:20:52;16.93;;;9.47;;
51636;SDS011;37713;53.254;6.460;2023-05-10T12:23:18;13.50;;;8.80;;
51636;SDS011;37713;53.254;6.460;2023-05-10T12:25:45;14.13;;;8.77;;
51636;SDS011;37713;53.254;6.460;2023-05-10T12:28:11;13.73;;;9.02;;
51636;SDS011;37713;53.254;6.460;2023-05-10T12:30:37;11.55;;;8.07;;
51636;SDS011;37713;53.254;6.460;2023-05-10T12:33:11;13.95;;;8.40;;
51636;SDS011;37713;53.254;6.460;2023-05-10T12:35:46;14.40;;;8.80;;
51636;SDS011;37713;53.254;6.460;2023-05-10T12:38:26;12.50;;;8.35;;
51636;SDS011;37713;53.254;6.460;2023-05-10T12:40:58;12.75;;;8.18;;
51636;SDS011;37713;53.254;6.460;2023-05-10T12:43:25;16.45;;;8.65;;
51636;SDS011;37713;53.254;6.460;2023-05-10T12:45:52;16.70;;;8.70;;
51636;SDS011;37713;53.254;6.460;2023-05-10T12:48:18;12.05;;;7.45;;
51636;SDS011;37713;53.254;6.460;2023-05-10T12:50:44;11.15;;;7.53;;
51636;SDS011;37713;53.254;6.460;2023-05-10T12:53:10;13.48;;;6.90;;
51636;SDS011;37713;53.254;6.460;2023-05-10T12:55:36;11.68;;;7.38;;
51636;SDS011;37713;53.254;6.460;2023-05-10T12:58:04;12.50;;;7.82;;
51636;SDS011;37713;53.254;6.460;2023-05-10T13:00:30;17.30;;;8.23;;
51636;SDS011;37713;53.254;6.460;2023-05-10T13:02:56;11.88;;;8.25;;
51636;SDS011;37713;53.254;6.460;2023-05-10T13:05:22;10.20;;;6.97;;
51636;SDS011;37713;53.254;6.460;2023-05-10T13:07:47;11.43;;;7.03;;
51636;SDS011;37713;53.254;6.460;2023-05-10T13:10:13;14.68;;;7.28;;
51636;SDS011;37713;53.254;6.460;2023-05-10T13:12:39;10.63;;;7.63;;
51636;SDS011;37713;53.254;6.460;2023-05-10T13:15:05;12.20;;;6.97;;
51636;SDS011;37713;53.254;6.460;2023-05-10T13:17:31;11.05;;;7.20;;
51636;SDS011;37713;53.254;6.460;2023-05-10T13:19:57;14.00;;;8.00;;
51636;SDS011;37713;53.254;6.460;2023-05-10T13:22:23;12.52;;;7.90;;
51636;SDS011;37713;53.254;6.460;2023-05-10T13:24:49;12.15;;;7.47;;
51636;SDS011;37713;53.254;6.460;2023-05-10T13:27:15;15.63;;;7.15;;
51636;SDS011;37713;53.254;6.460;2023-05-10T13:29:40;10.48;;;6.57;;
51636;SDS011;37713;53.254;6.460;2023-05-10T13:32:06;10.55;;;7.20;;
51636;SDS011;37713;53.254;6.460;2023-05-10T13:34:32;11.65;;;7.43;;
51636;SDS011;37713;53.254;6.460;2023-05-10T13:36:58;10.40;;;6.75;;
51636;SDS011;37713;53.254;6.460;2023-05-10T13:39:23;10.95;;;7.15;;
51636;SDS011;37713;53.254;6.460;2023-05-10T13:41:49;13.23;;;7.25;;
51636;SDS011;37713;53.254;6.460;2023-05-10T13:44:15;12.65;;;7.70;;
51636;SDS011;37713;53.254;6.460;2023-05-10T13:46:41;12.15;;;7.38;;
51636;SDS011;37713;53.254;6.460;2023-05-10T13:49:08;11.73;;;7.88;;
51636;SDS011;37713;53.254;6.460;2023-05-10T13:51:34;13.30;;;9.02;;
51636;SDS011;37713;53.254;6.460;2023-05-10T13:54:01;12.45;;;7.68;;
51636;SDS011;37713;53.254;6.460;2023-05-10T13:56:27;12.73;;;8.02;;
51636;SDS011;37713;53.254;6.460;2023-05-10T13:58:53;14.48;;;8.45;;
51636;SDS011;37713;53.254;6.460;2023-05-10T14:01:19;12.23;;;8.23;;
51636;SDS011;37713;53.254;6.460;2023-05-10T14:03:44;12.10;;;7.75;;
51636;SDS011;37713;53.254;6.460;2023-05-10T14:06:13;10.40;;;7.28;;
51636;SDS011;37713;53.254;6.460;2023-05-10T14:08:39;24.33;;;8.48;;
51636;SDS011;37713;53.254;6.460;2023-05-10T14:11:05;13.05;;;7.60;;
51636;SDS011;37713;53.254;6.460;2023-05-10T14:13:30;12.38;;;8.10;;
51636;SDS011;37713;53.254;6.460;2023-05-10T14:15:56;15.85;;;8.98;;
51636;SDS011;37713;53.254;6.460;2023-05-10T14:18:23;15.63;;;8.45;;
51636;SDS011;37713;53.254;6.460;2023-05-10T14:20:49;13.30;;;8.73;;
51636;SDS011;37713;53.254;6.460;2023-05-10T14:23:15;13.98;;;8.70;;
51636;SDS011;37713;53.254;6.460;2023-05-10T14:25:41;15.40;;;9.18;;
51636;SDS011;37713;53.254;6.460;2023-05-10T14:28:07;13.90;;;8.93;;
51636;SDS011;37713;53.254;6.460;2023-05-10T14:30:32;13.63;;;9.82;;
51636;SDS011;37713;53.254;6.460;2023-05-10T14:32:59;15.90;;;10.32;;
51636;SDS011;37713;53.254;6.460;2023-05-10T14:35:27;17.70;;;11.55;;
51636;SDS011;37713;53.254;6.460;2023-05-10T14:37:55;18.08;;;10.38;;
51636;SDS011;37713;53.254;6.460;2023-05-10T14:40:22;14.65;;;9.75;;
51636;SDS011;37713;53.254;6.460;2023-05-10T14:42:49;14.20;;;9.77;;
51636;SDS011;37713;53.254;6.460;2023-05-10T14:45:15;15.50;;;10.10;;
51636;SDS011;37713;53.254;6.460;2023-05-10T14:47:41;14.48;;;10.02;;
51636;SDS011;37713;53.254;6.460;2023-05-10T14:50:07;15.38;;;9.75;;
51636;SDS011;37713;53.254;6.460;2023-05-10T14:52:33;13.75;;;9.05;;
51636;SDS011;37713;53.254;6.460;2023-05-10T14:54:59;13.77;;;9.18;;
51636;SDS011;37713;53.254;6.460;2023-05-10T14:57:26;13.93;;;9.07;;
51636;SDS011;37713;53.254;6.460;2023-05-10T14:59:54;12.77;;;8.45;;
51636;SDS011;37713;53.254;6.460;2023-05-10T15:02:21;11.35;;;8.60;;
51636;SDS011;37713;53.254;6.460;2023-05-10T15:04:47;11.77;;;7.50;;
51636;SDS011;37713;53.254;6.460;2023-05-10T15:07:13;11.43;;;8.02;;
51636;SDS011;37713;53.254;6.460;2023-05-10T15:09:40;10.88;;;7.82;;
51636;SDS011;37713;53.254;6.460;2023-05-10T15:12:06;14.70;;;9.80;;
51636;SDS011;37713;53.254;6.460;2023-05-10T15:14:32;13.57;;;9.43;;